Time;durP1;ratioP1;P1;durP2;ratioP2;P2;SDS_P1;SDS_P2;PMS_P1;PMS_P2;Temp;Humidity;BMP_temperature;BMP_pressure;BME280_temperature;BME280_humidity;BME280_pressure;Samples;Min_cycle;Max_cycle;Signal;HPM_P1;HPM_P2
2023/05/12 00:00:13;;;;;;;255.35;11.95;;;;;;;;;;4983392;28;20426;-59
2023/05/12 00:02:39;;;;;;;193.07;10.10;;;;;;;;;;4983946;28;20026;-55
2023/05/12 00:05:04;;;;;;;198.52;9.95;;;;;;;;;;4984045;28;20030;-56
2023/05/12 00:07:29;;;;;;;300.45;13.10;;;;;;;;;;4982092;28;20038;-58
2023/05/12 00:09:55;;;;;;;188.83;10.17;;;;;;;;;;4984294;28;20030;-56
2023/05/12 00:12:20;;;;;;;227.65;10.45;;;;;;;;;;4982393;28;20361;-58
2023/05/12 00:14:45;;;;;;;225.03;10.60;;;;;;;;;;4981428;28;20048;-55
2023/05/12 00:17:12;;;;;;;204.13;10.27;;;;;;;;;;4983525;28;20268;-55
2023/05/12 00:19:40;;;;;;;207.70;11.02;;;;;;;;;;4985189;28;20025;-57
2023/05/12 00:22:05;;;;;;;164.70;9.75;;;;;;;;;;4983106;28;20114;-57
2023/05/12 00:24:31;;;;;;;223.57;11.57;;;;;;;;;;4984181;28;20844;-58
2023/05/12 00:26:56;;;;;;;222.23;10.65;;;;;;;;;;4983870;28;20153;-56
2023/05/12 00:29:21;;;;;;;207.40;10.93;;;;;;;;;;4981201;28;20038;-56
2023/05/12 00:31:46;;;;;;;210.27;10.03;;;;;;;;;;4983407;28;20841;-56
2023/05/12 00:34:11;;;;;;;182.03;10.10;;;;;;;;;;4982047;28;20652;-57
2023/05/12 00:36:37;;;;;;;147.47;9.17;;;;;;;;;;4984258;28;21131;-56
2023/05/12 00:39:02;;;;;;;251.50;11.43;;;;;;;;;;4983676;28;20262;-57
2023/05/12 00:41:27;;;;;;;232.98;11.82;;;;;;;;;;4982575;28;20058;-57
2023/05/12 00:43:53;;;;;;;282.83;12.23;;;;;;;;;;4983198;28;20030;-56
2023/05/12 00:46:18;;;;;;;229.47;11.10;;;;;;;;;;4981561;28;20349;-56
2023/05/12 00:48:44;;;;;;;167.52;9.77;;;;;;;;;;4982231;28;20300;-58
2023/05/12 00:51:11;;;;;;;205.27;10.52;;;;;;;;;;4982347;28;20023;-59
2023/05/12 00:53:36;;;;;;;185.35;10.25;;;;;;;;;;4983606;28;20686;-56
2023/05/12 00:56:01;;;;;;;193.60;9.93;;;;;;;;;;4982218;28;20720;-58
2023/05/12 00:58:26;;;;;;;185.35;9.93;;;;;;;;;;4981706;28;20899;-58
2023/05/12 01:00:52;;;;;;;216.48;10.68;;;;;;;;;;4981463;28;20038;-58
2023/05/12 01:03:17;;;;;;;215.10;10.48;;;;;;;;;;4982844;28;20027;-58
2023/05/12 01:05:53;;;;;;;225.93;11.23;;;;;;;;;;4981412;28;20062;-57
2023/05/12 01:08:18;;;;;;;194.00;10.27;;;;;;;;;;4982270;28;20129;-58
2023/05/12 01:10:44;;;;;;;240.23;11.30;;;;;;;;;;4981981;28;20058;-56
2023/05/12 01:13:09;;;;;;;190.98;10.52;;;;;;;;;;4982667;28;20019;-56
2023/05/12 01:15:36;;;;;;;231.60;11.15;;;;;;;;;;4983527;28;20073;-58
2023/05/12 01:18:03;;;;;;;225.05;11.18;;;;;;;;;;4982814;28;20025;-56
2023/05/12 01:20:29;;;;;;;220.73;11.55;;;;;;;;;;4965419;28;20399;-58
2023/05/12 01:22:54;;;;;;;238.20;11.52;;;;;;;;;;4983539;28;20038;-55
2023/05/12 01:25:22;;;;;;;226.60;12.00;;;;;;;;;;4981360;28;20022;-56
2023/05/12 01:27:48;;;;;;;189.20;10.68;;;;;;;;;;4982555;28;20667;-57
2023/05/12 01:30:15;;;;;;;261.70;13.65;;;;;;;;;;4982271;28;20034;-58
2023/05/12 01:32:40;;;;;;;201.65;11.38;;;;;;;;;;4983388;28;20026;-55
2023/05/12 01:35:06;;;;;;;212.57;11.55;;;;;;;;;;4981395;28;20770;-58
2023/05/12 01:37:31;;;;;;;275.23;13.77;;;;;;;;;;4982839;28;20065;-57
2023/05/12 01:39:56;;;;;;;206.18;11.73;;;;;;;;;;4983479;28;20121;-58
2023/05/12 01:42:22;;;;;;;236.77;11.70;;;;;;;;;;4983273;28;20080;-56
2023/05/12 01:44:47;;;;;;;171.63;11.20;;;;;;;;;;4983994;28;20315;-57
2023/05/12 01:47:14;;;;;;;203.75;12.68;;;;;;;;;;4982388;28;20293;-56
2023/05/12 01:49:39;;;;;;;217.10;11.73;;;;;;;;;;4982758;28;20030;-56
2023/05/12 01:52:05;;;;;;;180.73;11.40;;;;;;;;;;4982199;28;20899;-54
2023/05/12 01:54:30;;;;;;;194.55;12.10;;;;;;;;;;4980802;28;20776;-55
2023/05/12 01:56:55;;;;;;;194.30;12.10;;;;;;;;;;4982100;28;20541;-58
2023/05/12 01:59:20;;;;;;;218.03;12.20;;;;;;;;;;4986497;28;20049;-56
2023/05/12 02:01:46;;;;;;;262.70;13.83;;;;;;;;;;4984892;28;20266;-57
2023/05/12 02:04:11;;;;;;;187.07;11.73;;;;;;;;;;4985798;28;20253;-55
2023/05/12 02:06:36;;;;;;;174.87;12.27;;;;;;;;;;4986032;28;20088;-55
2023/05/12 02:09:01;;;;;;;259.50;13.60;;;;;;;;;;4984833;28;20339;-55
2023/05/12 02:11:27;;;;;;;213.85;12.93;;;;;;;;;;4984599;28;20030;-57
2023/05/12 02:13:52;;;;;;;372.13;16.97;;;;;;;;;;4984239;28;20152;-57
2023/05/12 02:16:17;;;;;;;231.38;13.77;;;;;;;;;;4986447;28;20304;-57
2023/05/12 02:18:42;;;;;;;215.57;12.93;;;;;;;;;;4985262;28;20492;-57
2023/05/12 02:21:08;;;;;;;229.18;13.15;;;;;;;;;;4984778;28;20648;-58
2023/05/12 02:23:33;;;;;;;205.93;12.53;;;;;;;;;;4985406;28;20036;-56
2023/05/12 02:25:58;;;;;;;201.88;13.02;;;;;;;;;;4983957;28;20278;-56
2023/05/12 02:28:23;;;;;;;278.65;14.63;;;;;;;;;;4986923;28;20037;-55
2023/05/12 02:30:49;;;;;;;190.20;13.30;;;;;;;;;;4985138;28;20030;-57
2023/05/12 02:33:15;;;;;;;202.85;12.93;;;;;;;;;;4985323;28;20325;-56
2023/05/12 02:35:40;;;;;;;252.45;14.75;;;;;;;;;;4982564;28;20099;-56
2023/05/12 02:38:06;;;;;;;207.23;13.73;;;;;;;;;;4985206;28;20037;-55
2023/05/12 02:40:31;;;;;;;244.07;14.40;;;;;;;;;;4985279;28;20447;-56
2023/05/12 02:42:56;;;;;;;217.67;13.77;;;;;;;;;;4985913;28;20021;-57
2023/05/12 02:45:21;;;;;;;216.40;13.43;;;;;;;;;;4983124;28;20735;-54
2023/05/12 02:47:47;;;;;;;261.10;14.50;;;;;;;;;;4985848;28;20663;-57
2023/05/12 02:50:12;;;;;;;183.30;13.27;;;;;;;;;;4984965;28;20029;-57
2023/05/12 02:52:38;;;;;;;203.45;14.10;;;;;;;;;;4982847;28;20030;-57
2023/05/12 02:55:03;;;;;;;265.23;14.37;;;;;;;;;;4984497;28;20025;-55
2023/05/12 02:57:32;;;;;;;198.85;13.57;;;;;;;;;;4982690;28;20265;-55
2023/05/12 02:59:58;;;;;;;243.15;14.05;;;;;;;;;;4985282;28;20180;-57
2023/05/12 03:02:23;;;;;;;224.73;14.88;;;;;;;;;;4983031;28;20042;-57
2023/05/12 03:04:48;;;;;;;205.23;12.50;;;;;;;;;;4983660;28;20507;-58
2023/05/12 03:07:13;;;;;;;257.67;14.33;;;;;;;;;;4983246;28;20882;-56
2023/05/12 03:09:39;;;;;;;164.90;12.43;;;;;;;;;;4983986;28;20261;-55
2023/05/12 03:12:04;;;;;;;216.65;13.77;;;;;;;;;;4985316;28;20030;-56
2023/05/12 03:14:29;;;;;;;233.88;14.05;;;;;;;;;;4983157;28;20022;-57
2023/05/12 03:16:55;;;;;;;216.55;13.40;;;;;;;;;;4984099;28;20114;-56
2023/05/12 03:19:20;;;;;;;169.80;12.15;;;;;;;;;;4984386;28;20729;-57
2023/05/12 03:21:45;;;;;;;226.65;14.05;;;;;;;;;;4983652;28;20678;-56
2023/05/12 03:24:11;;;;;;;231.65;14.60;;;;;;;;;;4985195;28;20553;-58
2023/05/12 03:26:36;;;;;;;240.88;14.55;;;;;;;;;;4984847;28;20754;-56
2023/05/12 03:29:02;;;;;;;203.57;15.02;;;;;;;;;;4984769;28;20029;-55
2023/05/12 03:31:27;;;;;;;195.50;13.68;;;;;;;;;;4971393;28;20061;-56
2023/05/12 03:33:52;;;;;;;334.60;17.57;;;;;;;;;;4983542;28;20400;-57
2023/05/12 03:36:18;;;;;;;209.98;13.55;;;;;;;;;;4984588;28;21136;-58
2023/05/12 03:38:43;;;;;;;205.88;14.45;;;;;;;;;;4984048;28;20019;-57
2023/05/12 03:41:08;;;;;;;237.40;15.05;;;;;;;;;;4984297;28;20037;-56
2023/05/12 03:43:34;;;;;;;198.13;14.03;;;;;;;;;;4983839;28;20576;-55
2023/05/12 03:45:59;;;;;;;225.70;14.30;;;;;;;;;;4982497;28;20261;-55
2023/05/12 03:48:25;;;;;;;200.60;14.20;;;;;;;;;;4983423;28;20612;-56
2023/05/12 03:50:50;;;;;;;212.43;14.63;;;;;;;;;;4984576;28;20288;-56
2023/05/12 03:53:15;;;;;;;237.70;14.93;;;;;;;;;;4986484;28;20257;-56
2023/05/12 03:55:40;;;;;;;231.03;14.33;;;;;;;;;;4984926;28;20555;-57
2023/05/12 03:58:06;;;;;;;238.38;13.65;;;;;;;;;;4984069;28;20803;-56
2023/05/12 04:00:32;;;;;;;224.88;13.05;;;;;;;;;;4984911;28;20041;-56
2023/05/12 04:02:57;;;;;;;190.70;13.50;;;;;;;;;;4984445;28;20825;-55
2023/05/12 04:05:22;;;;;;;175.70;11.85;;;;;;;;;;4982868;28;20034;-60
2023/05/12 04:07:48;;;;;;;204.90;13.60;;;;;;;;;;4982729;28;20563;-54
2023/05/12 04:10:13;;;;;;;227.83;15.30;;;;;;;;;;4981971;28;20051;-56
2023/05/12 04:12:38;;;;;;;276.70;15.82;;;;;;;;;;4985346;28;20306;-56
2023/05/12 04:15:04;;;;;;;222.40;15.57;;;;;;;;;;4983488;28;20025;-55
2023/05/12 04:17:29;;;;;;;228.05;13.73;;;;;;;;;;4984435;28;20266;-57
2023/05/12 04:19:54;;;;;;;238.73;14.93;;;;;;;;;;4984123;28;20137;-57
2023/05/12 04:22:19;;;;;;;203.80;14.02;;;;;;;;;;4983376;28;20703;-58
2023/05/12 04:24:45;;;;;;;218.20;15.33;;;;;;;;;;4981796;28;20118;-55
2023/05/12 04:27:10;;;;;;;221.93;14.85;;;;;;;;;;4981952;28;20275;-55
2023/05/12 04:29:35;;;;;;;230.48;14.43;;;;;;;;;;4984336;28;20018;-55
2023/05/12 04:32:01;;;;;;;209.82;14.13;;;;;;;;;;4981329;28;20069;-54
2023/05/12 04:34:26;;;;;;;170.88;12.35;;;;;;;;;;4982815;28;20557;-56
2023/05/12 04:36:51;;;;;;;183.53;13.67;;;;;;;;;;4983872;28;20034;-57
2023/05/12 04:39:17;;;;;;;228.13;13.40;;;;;;;;;;4983577;28;20257;-57
2023/05/12 04:41:42;;;;;;;197.10;13.60;;;;;;;;;;4985218;28;20099;-55
2023/05/12 04:44:08;;;;;;;200.77;11.80;;;;;;;;;;4983671;28;20038;-55
2023/05/12 04:46:33;;;;;;;276.50;14.57;;;;;;;;;;4983254;28;20038;-53
2023/05/12 04:48:58;;;;;;;206.60;14.00;;;;;;;;;;4982137;28;20022;-55
2023/05/12 04:51:24;;;;;;;216.32;13.90;;;;;;;;;;4984583;28;20036;-56
2023/05/12 04:53:49;;;;;;;263.48;15.43;;;;;;;;;;4983121;28;20022;-54
2023/05/12 04:56:14;;;;;;;197.00;13.67;;;;;;;;;;4983216;28;20034;-55
2023/05/12 04:58:39;;;;;;;276.58;15.15;;;;;;;;;;4982106;28;20287;-55
2023/05/12 05:01:05;;;;;;;240.18;14.35;;;;;;;;;;4984094;28;20030;-55
2023/05/12 05:03:30;;;;;;;195.98;13.70;;;;;;;;;;4983331;28;20824;-55
2023/05/12 05:05:56;;;;;;;236.10;13.33;;;;;;;;;;4982641;28;20521;-56
2023/05/12 05:08:21;;;;;;;185.07;13.65;;;;;;;;;;4980762;28;20288;-55
2023/05/12 05:10:46;;;;;;;215.20;13.93;;;;;;;;;;4982582;28;20030;-57
2023/05/12 05:13:12;;;;;;;247.68;14.75;;;;;;;;;;4981540;28;20118;-57
2023/05/12 05:15:37;;;;;;;208.23;14.15;;;;;;;;;;4981804;28;20106;-56
2023/05/12 05:18:02;;;;;;;244.52;15.40;;;;;;;;;;4982163;28;20600;-56
2023/05/12 05:20:28;;;;;;;188.48;11.80;;;;;;;;;;4984144;28;20039;-58
2023/05/12 05:22:53;;;;;;;234.20;14.43;;;;;;;;;;4984010;28;20050;-54
2023/05/12 05:25:19;;;;;;;250.80;14.27;;;;;;;;;;4981945;28;20014;-57
2023/05/12 05:27:44;;;;;;;253.13;14.05;;;;;;;;;;4981406;28;20026;-57
2023/05/12 05:30:09;;;;;;;193.95;12.23;;;;;;;;;;4981624;28;20421;-56
2023/05/12 05:32:35;;;;;;;230.13;13.35;;;;;;;;;;4985304;28;20101;-59
2023/05/12 05:35:01;;;;;;;225.40;13.02;;;;;;;;;;4986462;28;20022;-58
2023/05/12 05:37:26;;;;;;;250.57;14.13;;;;;;;;;;4985984;28;20564;-58
2023/05/12 05:39:51;;;;;;;208.30;13.25;;;;;;;;;;4986085;28;20022;-57
2023/05/12 05:42:17;;;;;;;197.85;12.27;;;;;;;;;;4985233;28;20038;-58
2023/05/12 05:44:43;;;;;;;258.48;14.60;;;;;;;;;;4983878;28;20029;-58
2023/05/12 05:47:08;;;;;;;196.98;12.77;;;;;;;;;;4986119;28;20036;-58
2023/05/12 05:49:33;;;;;;;229.63;13.40;;;;;;;;;;4985920;28;20029;-57
2023/05/12 05:51:58;;;;;;;237.50;13.40;;;;;;;;;;4986646;28;20070;-56
2023/05/12 05:54:24;;;;;;;231.50;14.25;;;;;;;;;;4984938;28;20057;-56
2023/05/12 05:56:49;;;;;;;187.40;11.93;;;;;;;;;;4985567;28;20128;-57
2023/05/12 05:59:14;;;;;;;249.93;13.15;;;;;;;;;;4986073;28;20022;-55
2023/05/12 06:01:40;;;;;;;249.27;13.77;;;;;;;;;;4986265;28;20168;-56
2023/05/12 06:04:05;;;;;;;268.42;14.57;;;;;;;;;;4985467;28;20025;-58
2023/05/12 06:06:30;;;;;;;183.50;12.17;;;;;;;;;;4985042;28;20030;-56
2023/05/12 06:08:55;;;;;;;172.32;11.75;;;;;;;;;;4985469;28;20285;-57
2023/05/12 06:11:21;;;;;;;277.90;14.75;;;;;;;;;;4984494;28;20027;-56
2023/05/12 06:13:46;;;;;;;321.58;15.65;;;;;;;;;;4984774;28;20119;-59
2023/05/12 06:16:11;;;;;;;225.40;13.03;;;;;;;;;;4985783;28;20031;-57
2023/05/12 06:18:37;;;;;;;230.18;13.13;;;;;;;;;;4970528;28;20257;-57
2023/05/12 06:21:03;;;;;;;148.27;10.68;;;;;;;;;;4985109;28;20038;-57
2023/05/12 06:23:28;;;;;;;204.60;11.88;;;;;;;;;;4987033;28;20443;-58
2023/05/12 06:25:53;;;;;;;209.13;12.30;;;;;;;;;;4983361;28;20476;-56
2023/05/12 06:28:18;;;;;;;226.35;12.73;;;;;;;;;;4986836;28;20895;-56
2023/05/12 06:30:44;;;;;;;245.00;12.65;;;;;;;;;;4985740;28;20792;-56
2023/05/12 06:33:09;;;;;;;200.07;13.00;;;;;;;;;;4987090;28;20018;-55
2023/05/12 06:35:35;;;;;;;205.70;12.00;;;;;;;;;;4985232;28;20561;-55
2023/05/12 06:38:00;;;;;;;246.80;13.35;;;;;;;;;;4986537;28;20098;-55
2023/05/12 06:40:25;;;;;;;198.03;11.97;;;;;;;;;;4983572;28;20137;-56
2023/05/12 06:42:50;;;;;;;238.68;12.75;;;;;;;;;;4984543;28;20265;-56
2023/05/12 06:45:16;;;;;;;223.87;12.53;;;;;;;;;;4981741;28;20030;-56
2023/05/12 06:47:41;;;;;;;247.93;13.15;;;;;;;;;;4982542;28;20281;-55
2023/05/12 06:50:07;;;;;;;271.17;12.80;;;;;;;;;;4984627;28;20053;-55
2023/05/12 06:52:32;;;;;;;203.60;11.48;;;;;;;;;;4984988;28;20018;-57
2023/05/12 06:54:57;;;;;;;271.80;12.57;;;;;;;;;;4985444;28;20048;-57
2023/05/12 06:57:23;;;;;;;274.97;12.83;;;;;;;;;;4985149;28;20061;-56
2023/05/12 06:59:48;;;;;;;175.80;10.97;;;;;;;;;;4983899;28;20828;-55
2023/05/12 07:02:13;;;;;;;212.90;11.57;;;;;;;;;;4985295;28;20832;-57
2023/05/12 07:04:38;;;;;;;221.23;11.37;;;;;;;;;;4983340;28;20846;-55
2023/05/12 07:07:03;;;;;;;208.23;9.40;;;;;;;;;;4985998;28;20643;-55
2023/05/12 07:09:29;;;;;;;198.27;10.60;;;;;;;;;;4985397;28;20368;-56
2023/05/12 07:11:54;;;;;;;209.30;11.35;;;;;;;;;;4984141;28;20269;-58
2023/05/12 07:14:19;;;;;;;192.60;10.83;;;;;;;;;;4983579;28;20025;-56
2023/05/12 07:16:45;;;;;;;240.10;11.60;;;;;;;;;;4983685;28;20348;-57
2023/05/12 07:19:10;;;;;;;229.15;12.27;;;;;;;;;;4983227;28;20270;-56
2023/05/12 07:21:36;;;;;;;197.60;12.00;;;;;;;;;;4983342;28;20039;-57
2023/05/12 07:24:01;;;;;;;282.25;13.70;;;;;;;;;;4980733;28;20926;-56
2023/05/12 07:26:28;;;;;;;206.85;11.20;;;;;;;;;;4983021;28;20491;-56
2023/05/12 07:28:53;;;;;;;214.43;13.23;;;;;;;;;;4984069;28;20088;-56
2023/05/12 07:31:18;;;;;;;196.60;11.60;;;;;;;;;;4983288;28;20622;-58
2023/05/12 07:33:44;;;;;;;320.35;14.50;;;;;;;;;;4984700;28;20025;-57
2023/05/12 07:36:09;;;;;;;207.13;10.10;;;;;;;;;;4971268;28;20030;-58
2023/05/12 07:38:34;;;;;;;223.32;12.60;;;;;;;;;;4983836;28;20023;-56
2023/05/12 07:41:00;;;;;;;209.57;11.55;;;;;;;;;;4982982;28;20125;-58
2023/05/12 07:43:25;;;;;;;235.98;12.27;;;;;;;;;;4983231;28;20022;-57
2023/05/12 07:45:50;;;;;;;237.10;13.45;;;;;;;;;;4983125;28;20045;-57
2023/05/12 07:48:16;;;;;;;229.03;12.40;;;;;;;;;;4982292;28;20049;-56
2023/05/12 07:50:41;;;;;;;217.93;11.83;;;;;;;;;;4982596;28;20872;-58
2023/05/12 07:53:06;;;;;;;215.73;11.80;;;;;;;;;;4984418;28;20270;-57
2023/05/12 07:55:34;;;;;;;209.32;10.20;;;;;;;;;;4983343;28;20113;-57
2023/05/12 07:58:00;;;;;;;180.82;10.65;;;;;;;;;;4983990;28;20096;-55
2023/05/12 08:00:25;;;;;;;203.73;10.70;;;;;;;;;;4983428;28;20041;-56
2023/05/12 08:02:50;;;;;;;242.50;13.05;;;;;;;;;;4983957;28;20030;-55
2023/05/12 08:05:16;;;;;;;205.60;11.33;;;;;;;;;;4983918;28;20054;-57
2023/05/12 08:07:45;;;;;;;219.57;10.65;;;;;;;;;;4970434;28;20296;-56
2023/05/12 08:10:11;;;;;;;232.80;12.50;;;;;;;;;;4982515;28;20380;-58
2023/05/12 08:12:37;;;;;;;230.85;11.40;;;;;;;;;;4982921;28;20097;-57
2023/05/12 08:15:02;;;;;;;237.07;11.15;;;;;;;;;;4983224;28;20078;-55
2023/05/12 08:17:27;;;;;;;193.70;10.48;;;;;;;;;;4982413;28;20616;-58
2023/05/12 08:19:52;;;;;;;200.02;9.80;;;;;;;;;;4984828;28;20041;-57
2023/05/12 08:22:18;;;;;;;220.87;10.87;;;;;;;;;;4984210;28;20031;-56
2023/05/12 08:24:44;;;;;;;229.77;10.85;;;;;;;;;;4982739;28;20261;-56
2023/05/12 08:27:10;;;;;;;221.98;11.07;;;;;;;;;;4983288;28;20046;-58
2023/05/12 08:29:35;;;;;;;239.50;10.80;;;;;;;;;;4983057;28;20152;-58
2023/05/12 08:32:01;;;;;;;218.20;11.52;;;;;;;;;;4981331;28;20110;-56
2023/05/12 08:34:26;;;;;;;210.05;10.68;;;;;;;;;;4983282;28;20053;-56
2023/05/12 08:36:51;;;;;;;238.73;11.70;;;;;;;;;;4981423;28;20030;-55
2023/05/12 08:39:17;;;;;;;254.93;11.07;;;;;;;;;;4983453;28;20029;-57
2023/05/12 08:41:43;;;;;;;214.10;10.07;;;;;;;;;;4982258;28;20034;-57
2023/05/12 08:44:09;;;;;;;287.85;12.52;;;;;;;;;;4982534;28;20113;-56
2023/05/12 08:46:35;;;;;;;226.45;10.73;;;;;;;;;;4965845;28;20128;-55
2023/05/12 08:49:01;;;;;;;259.92;11.60;;;;;;;;;;4984290;28;20029;-57
2023/05/12 08:51:27;;;;;;;164.98;8.98;;;;;;;;;;4983028;28;20030;-58
2023/05/12 08:53:54;;;;;;;272.27;12.15;;;;;;;;;;4972327;28;20408;-57
2023/05/12 08:56:21;;;;;;;223.38;9.88;;;;;;;;;;4981993;28;20114;-56
2023/05/12 08:58:47;;;;;;;230.73;9.75;;;;;;;;;;4983947;28;20022;-57
2023/05/12 09:01:13;;;;;;;220.60;10.18;;;;;;;;;;4982277;28;20385;-56
2023/05/12 09:03:38;;;;;;;284.00;11.82;;;;;;;;;;4982603;28;20066;-55
2023/05/12 09:06:04;;;;;;;228.70;9.85;;;;;;;;;;4983179;28;20117;-57
2023/05/12 09:08:33;;;;;;;206.10;9.43;;;;;;;;;;4980774;28;20026;-56
2023/05/12 09:10:59;;;;;;;275.25;11.02;;;;;;;;;;4982928;28;20030;-56
2023/05/12 09:13:25;;;;;;;239.32;10.38;;;;;;;;;;4982708;28;20400;-56
2023/05/12 09:15:52;;;;;;;192.90;8.90;;;;;;;;;;4982194;28;20080;-58
2023/05/12 09:18:17;;;;;;;221.18;10.93;;;;;;;;;;4983265;28;20033;-58
2023/05/12 09:20:43;;;;;;;212.33;8.13;;;;;;;;;;4982698;28;20026;-55
2023/05/12 09:23:26;;;;;;;226.77;9.27;;;;;;;;;;4984612;28;20264;-55
2023/05/12 09:26:00;;;;;;;266.40;10.50;;;;;;;;;;4981817;28;20038;-55
2023/05/12 09:28:33;;;;;;;228.02;9.35;;;;;;;;;;4982686;28;20543;-56
2023/05/12 09:30:58;;;;;;;241.93;9.45;;;;;;;;;;4979824;28;20114;-55
2023/05/12 09:33:24;;;;;;;262.67;9.93;;;;;;;;;;4980967;28;20019;-55
2023/05/12 09:35:49;;;;;;;217.80;9.13;;;;;;;;;;4981263;28;20367;-56
2023/05/12 09:38:14;;;;;;;274.38;9.95;;;;;;;;;;4982949;28;20434;-58
2023/05/12 09:40:40;;;;;;;157.85;7.22;;;;;;;;;;4982101;28;20030;-57
2023/05/12 09:43:06;;;;;;;233.52;9.10;;;;;;;;;;4983953;28;20522;-57
2023/05/12 09:45:37;;;;;;;231.18;8.63;;;;;;;;;;4983232;28;20035;-57
2023/05/12 09:48:07;;;;;;;228.50;8.87;;;;;;;;;;4981928;28;20728;-58
2023/05/12 09:50:32;;;;;;;232.13;9.00;;;;;;;;;;4980845;28;20086;-57
2023/05/12 09:52:57;;;;;;;163.40;7.50;;;;;;;;;;4983781;28;20041;-56
2023/05/12 09:55:22;;;;;;;258.80;10.00;;;;;;;;;;4981490;28;20457;-56
2023/05/12 09:57:48;;;;;;;211.10;8.10;;;;;;;;;;4982243;28;20265;-57
2023/05/12 10:00:14;;;;;;;165.52;6.78;;;;;;;;;;4981594;28;20418;-58
2023/05/12 10:02:41;;;;;;;227.60;8.77;;;;;;;;;;4983754;28;20053;-58
2023/05/12 10:05:10;;;;;;;168.82;7.60;;;;;;;;;;4982446;28;20050;-56
2023/05/12 10:07:36;;;;;;;283.45;10.70;;;;;;;;;;4981548;28;20095;-57
2023/05/12 10:10:03;;;;;;;226.07;8.63;;;;;;;;;;4982441;28;20030;-56
2023/05/12 10:12:28;;;;;;;215.55;8.30;;;;;;;;;;4981555;28;20453;-56
2023/05/12 10:14:54;;;;;;;201.50;8.35;;;;;;;;;;4979609;28;20714;-56
2023/05/12 10:17:19;;;;;;;192.05;7.90;;;;;;;;;;4982362;28;20041;-57
2023/05/12 10:19:45;;;;;;;194.82;8.45;;;;;;;;;;4984056;28;20034;-58
2023/05/12 10:22:11;;;;;;;232.50;9.43;;;;;;;;;;4984063;28;20048;-58
2023/05/12 10:24:38;;;;;;;194.57;8.10;;;;;;;;;;4986433;28;20050;-57
2023/05/12 10:27:07;;;;;;;205.00;8.18;;;;;;;;;;4985672;28;20034;-57
2023/05/12 10:29:32;;;;;;;168.93;7.20;;;;;;;;;;4986473;28;20040;-58
2023/05/12 10:31:59;;;;;;;164.75;7.03;;;;;;;;;;4983868;28;20034;-56
2023/05/12 10:34:29;;;;;;;222.27;8.45;;;;;;;;;;4984615;28;20142;-58
2023/05/12 10:36:57;;;;;;;215.65;8.50;;;;;;;;;;4984858;28;20700;-55
2023/05/12 10:39:28;;;;;;;221.82;8.52;;;;;;;;;;4983747;28;20837;-56
2023/05/12 10:42:01;;;;;;;219.23;8.82;;;;;;;;;;4986113;28;20066;-56
2023/05/12 10:44:27;;;;;;;246.77;9.20;;;;;;;;;;4986490;28;20024;-55
2023/05/12 10:46:59;;;;;;;199.52;8.30;;;;;;;;;;4985043;28;20478;-57
2023/05/12 10:49:32;;;;;;;236.73;9.30;;;;;;;;;;4984593;28;20033;-55
2023/05/12 10:52:00;;;;;;;185.68;7.90;;;;;;;;;;4983301;28;20030;-57
2023/05/12 10:54:26;;;;;;;229.85;9.43;;;;;;;;;;4986106;28;20045;-55
2023/05/12 10:56:51;;;;;;;202.23;9.10;;;;;;;;;;4983796;28;20034;-56
2023/05/12 10:59:21;;;;;;;218.52;9.75;;;;;;;;;;4984921;28;20023;-57
2023/05/12 11:01:59;;;;;;;191.02;9.15;;;;;;;;;;4985394;28;20038;-57
2023/05/12 11:04:35;;;;;;;213.15;10.32;;;;;;;;;;4985164;28;20117;-57
2023/05/12 11:07:00;;;;;;;179.48;8.73;;;;;;;;;;4983724;28;20982;-58
2023/05/12 11:09:25;;;;;;;178.20;9.57;;;;;;;;;;4983979;28;20145;-58
2023/05/12 11:11:51;;;;;;;193.98;10.52;;;;;;;;;;4984712;28;20026;-56
2023/05/12 11:14:16;;;;;;;254.20;10.73;;;;;;;;;;4984064;28;20440;-57
2023/05/12 11:16:42;;;;;;;196.60;8.63;;;;;;;;;;4983295;28;20504;-57
2023/05/12 11:19:07;;;;;;;202.55;10.00;;;;;;;;;;4984924;28;20030;-57
2023/05/12 11:21:33;;;;;;;153.80;7.87;;;;;;;;;;4984404;28;20038;-56
2023/05/12 11:23:59;;;;;;;198.82;9.55;;;;;;;;;;4984579;28;20746;-55
2023/05/12 11:26:25;;;;;;;194.98;9.07;;;;;;;;;;4981842;28;20038;-56
2023/05/12 11:28:50;;;;;;;193.98;8.57;;;;;;;;;;4986725;28;20022;-55
2023/05/12 11:31:16;;;;;;;220.77;9.52;;;;;;;;;;4984123;28;20030;-56
2023/05/12 11:33:42;;;;;;;267.75;10.98;;;;;;;;;;4983852;28;20021;-54
2023/05/12 11:36:08;;;;;;;152.40;7.50;;;;;;;;;;4985113;28;20454;-55
2023/05/12 11:38:33;;;;;;;186.82;8.75;;;;;;;;;;4985426;28;20260;-55
2023/05/12 11:40:58;;;;;;;206.27;9.00;;;;;;;;;;4984597;28;20049;-55
2023/05/12 11:43:23;;;;;;;221.10;9.07;;;;;;;;;;4986131;28;20265;-57
2023/05/12 11:45:49;;;;;;;239.07;9.87;;;;;;;;;;4983513;28;20273;-54
2023/05/12 11:48:15;;;;;;;187.88;7.85;;;;;;;;;;4983334;28;20327;-52
2023/05/12 11:50:41;;;;;;;200.20;8.45;;;;;;;;;;4983587;28;20048;-53
2023/05/12 11:53:13;;;;;;;215.15;8.32;;;;;;;;;;4984691;28;20088;-54
2023/05/12 11:55:46;;;;;;;187.32;8.27;;;;;;;;;;4984532;28;20371;-54
2023/05/12 11:58:16;;;;;;;250.65;10.32;;;;;;;;;;4982850;28;20050;-51
2023/05/12 12:00:42;;;;;;;191.93;8.80;;;;;;;;;;4984351;28;20518;-51
2023/05/12 12:03:11;;;;;;;221.07;9.88;;;;;;;;;;4986520;28;20034;-54
2023/05/12 12:05:37;;;;;;;215.75;9.15;;;;;;;;;;4983004;28;20392;-52
2023/05/12 12:08:06;;;;;;;173.95;7.93;;;;;;;;;;4984700;28;20030;-53
2023/05/12 12:10:31;;;;;;;213.32;8.63;;;;;;;;;;4999956;28;20038;-53
2023/05/12 12:12:58;;;;;;;200.90;8.13;;;;;;;;;;5001345;28;20037;-51
2023/05/12 12:15:23;;;;;;;231.18;8.55;;;;;;;;;;4983476;28;20105;-54
2023/05/12 12:17:49;;;;;;;215.65;7.95;;;;;;;;;;4981263;28;20473;-52
2023/05/12 12:20:16;;;;;;;195.50;7.70;;;;;;;;;;4984368;28;20039;-52
2023/05/12 12:22:41;;;;;;;224.70;8.40;;;;;;;;;;4984154;28;20030;-52
2023/05/12 12:25:07;;;;;;;194.90;7.60;;;;;;;;;;4982991;28;20103;-52
2023/05/12 12:27:32;;;;;;;266.23;9.48;;;;;;;;;;4983055;28;20277;-53
2023/05/12 12:29:57;;;;;;;233.50;8.40;;;;;;;;;;4982454;28;20040;-52
2023/05/12 12:32:23;;;;;;;219.95;8.32;;;;;;;;;;4984982;28;20123;-53
2023/05/12 12:34:48;;;;;;;206.50;7.85;;;;;;;;;;4982880;28;20616;-53
2023/05/12 12:37:13;;;;;;;179.50;7.37;;;;;;;;;;4982437;28;20587;-52
2023/05/12 12:39:38;;;;;;;180.80;7.43;;;;;;;;;;4983020;28;20264;-55
2023/05/12 12:42:04;;;;;;;231.87;8.60;;;;;;;;;;4980184;28;20389;-54
2023/05/12 12:44:29;;;;;;;211.68;8.63;;;;;;;;;;4982868;28;20285;-54
2023/05/12 12:46:54;;;;;;;199.50;7.87;;;;;;;;;;4982823;28;20030;-54
2023/05/12 12:49:20;;;;;;;252.50;9.13;;;;;;;;;;4981483;28;20320;-54
2023/05/12 12:51:46;;;;;;;188.07;7.78;;;;;;;;;;4982569;28;20266;-53
2023/05/12 12:54:11;;;;;;;202.05;8.07;;;;;;;;;;4981932;28;20034;-51
2023/05/12 12:56:36;;;;;;;176.40;7.63;;;;;;;;;;4982687;28;20034;-51
2023/05/12 12:59:01;;;;;;;185.27;8.23;;;;;;;;;;4982312;28;20324;-53
2023/05/12 13:01:27;;;;;;;215.90;8.97;;;;;;;;;;4982325;28;20908;-51
2023/05/12 13:03:52;;;;;;;294.05;11.70;;;;;;;;;;4982869;28;20419;-54
2023/05/12 13:06:17;;;;;;;207.07;8.93;;;;;;;;;;4982814;28;20073;-53
2023/05/12 13:08:43;;;;;;;237.93;9.57;;;;;;;;;;4981308;28;20316;-53
2023/05/12 13:11:08;;;;;;;181.57;9.00;;;;;;;;;;4984231;28;20038;-53
2023/05/12 13:13:34;;;;;;;170.23;8.25;;;;;;;;;;4984924;28;20264;-54
2023/05/12 13:15:59;;;;;;;240.30;9.48;;;;;;;;;;4980330;28;20079;-53
2023/05/12 13:18:25;;;;;;;204.50;8.80;;;;;;;;;;4981339;28;20251;-54
2023/05/12 13:20:50;;;;;;;186.75;7.38;;;;;;;;;;4982514;28;20114;-53
2023/05/12 13:23:15;;;;;;;205.88;9.60;;;;;;;;;;4982968;28;20389;-54
2023/05/12 13:25:43;;;;;;;170.57;8.55;;;;;;;;;;4983235;28;20042;-52
2023/05/12 13:28:09;;;;;;;209.70;8.27;;;;;;;;;;4981879;28;20037;-55
2023/05/12 13:30:34;;;;;;;176.18;7.32;;;;;;;;;;4981898;28;20030;-53
2023/05/12 13:32:59;;;;;;;178.63;7.60;;;;;;;;;;4982481;28;20140;-51
2023/05/12 13:35:24;;;;;;;235.75;8.95;;;;;;;;;;4982701;28;20256;-53
2023/05/12 13:37:50;;;;;;;200.33;8.13;;;;;;;;;;4980552;28;20030;-56
2023/05/12 13:40:15;;;;;;;189.80;8.23;;;;;;;;;;4981574;28;20274;-53
2023/05/12 13:42:40;;;;;;;232.25;8.93;;;;;;;;;;4983731;28;20106;-53
2023/05/12 13:45:06;;;;;;;202.67;8.00;;;;;;;;;;4981996;28;20391;-52
2023/05/12 13:47:31;;;;;;;271.90;10.00;;;;;;;;;;4981466;28;20338;-51
2023/05/12 13:49:56;;;;;;;165.60;7.13;;;;;;;;;;4982979;28;20030;-52
2023/05/12 13:52:22;;;;;;;218.93;8.40;;;;;;;;;;4981621;28;20046;-54
2023/05/12 13:54:47;;;;;;;234.25;8.68;;;;;;;;;;4983797;28;20129;-53
2023/05/12 13:57:13;;;;;;;177.77;7.60;;;;;;;;;;4986044;28;20030;-51
2023/05/12 13:59:38;;;;;;;185.95;8.00;;;;;;;;;;4985260;28;20297;-53